| time (UTC) | temp F | wind direction | speed knots | gust knots | rain 1hr in | rain 24hr in | rain mn in | humidity % | barometer mb |
| 20260507130328 | 52 | 284 | 0.0 | 1.7 | 0.00 | 0.26 | 0.17 | 98 | 1006.8 |
| 20260507125428 | 51 | 284 | 0.0 | 1.7 | 0.00 | 0.26 | 0.17 | 98 | 1006.9 |
| 20260507124528 | 50 | 284 | 0.0 | 1.7 | 0.00 | 0.26 | 0.17 | 99 | 1006.9 |
| 20260507122728 | 50 | 284 | 0.0 | 0.9 | 0.00 | 0.26 | 0.17 | 99 | 1006.9 |
| 20260507120928 | 49 | 245 | 0.0 | 1.7 | 0.00 | 0.26 | 0.17 | 99 | 1007.2 |
| 20260507120028 | 49 | 0 | 0.0 | 0.0 | 0.00 | 0.26 | 0.17 | 99 | 1006.8 |
| 20260507115128 | 49 | 0 | 0.0 | 0.0 | 0.00 | 0.26 | 0.17 | 99 | 1006.8 |
| 20260507114228 | 49 | 0 | 0.0 | 0.0 | 0.00 | 0.26 | 0.17 | 99 | 1006.8 |
| 20260507113328 | 49 | 0 | 0.0 | 0.0 | 0.00 | 0.26 | 0.17 | 99 | 1006.9 |
| 20260507112427 | 49 | 0 | 0.0 | 0.0 | 0.01 | 0.26 | 0.17 | 99 | 1006.7 |
| 20260507111529 | 49 | 0 | 0.0 | 0.0 | 0.01 | 0.26 | 0.17 | 99 | 1006.7 |
| 20260507110628 | 49 | 0 | 0.0 | 0.0 | 0.02 | 0.26 | 0.17 | 99 | 1006.5 |
| 20260507104828 | 48 | 0 | 0.0 | 0.0 | 0.02 | 0.26 | 0.17 | 99 | 1006.4 |
| 20260507103934 | 48 | 0 | 0.0 | 0.0 | 0.03 | 0.26 | 0.17 | 99 | 1006.2 |
| 20260507103027 | 48 | 0 | 0.0 | 0.0 | 0.03 | 0.26 | 0.17 | 99 | 1006.3 |
| 20260507101228 | 48 | 0 | 0.0 | 0.0 | 0.04 | 0.25 | 0.16 | 99 | 1006.7 |
| 20260507095427 | 48 | 0 | 0.0 | 0.0 | 0.03 | 0.24 | 0.15 | 98 | 1006.3 |
| 20260507094528 | 48 | 332 | 0.0 | 0.9 | 0.04 | 0.23 | 0.14 | 98 | 1006.5 |
| 20260507093627 | 48 | 0 | 0.0 | 0.0 | 0.05 | 0.23 | 0.14 | 98 | 1005.8 |
| 20260507092727 | 48 | 332 | 0.0 | 0.9 | 0.06 | 0.22 | 0.13 | 98 | 1006.0 |
| 20260507091827 | 48 | 332 | 0.0 | 1.7 | 0.07 | 0.22 | 0.13 | 98 | 1006.0 |
| 20260507085127 | 49 | 332 | 0.0 | 0.9 | 0.08 | 0.20 | 0.11 | 98 | 1005.8 |
| 20260507084227 | 49 | 332 | 0.0 | 0.9 | 0.07 | 0.19 | 0.10 | 98 | 1006.1 |
| 20260507083327 | 49 | 0 | 0.0 | 0.0 | 0.07 | 0.18 | 0.09 | 98 | 1006.1 |
| 20260507082428 | 50 | 0 | 0.0 | 0.0 | 0.06 | 0.16 | 0.07 | 97 | 1006.0 |
| 20260507081528 | 50 | 0 | 0.0 | 0.0 | 0.05 | 0.14 | 0.05 | 97 | 1005.9 |
| 20260507080627 | 50 | 0 | 0.0 | 0.0 | 0.05 | 0.14 | 0.05 | 97 | 1005.7 |
| 20260507075727 | 50 | 332 | 0.0 | 1.7 | 0.04 | 0.13 | 0.04 | 96 | 1006.3 |
| 20260507074827 | 51 | 332 | 0.0 | 1.7 | 0.03 | 0.12 | 0.03 | 96 | 1006.2 |
| 20260507073927 | 52 | 332 | 0.0 | 1.7 | 0.03 | 0.12 | 0.03 | 96 | 1006.1 |
| 20260507073027 | 52 | 332 | 0.0 | 1.7 | 0.01 | 0.10 | 0.02 | 95 | 1006.1 |
| 20260507072127 | 53 | 332 | 0.9 | 1.7 | 0.00 | 0.09 | 0.00 | 94 | 1005.5 |
| 20260507071227 | 53 | 332 | 0.0 | 0.9 | 0.00 | 0.09 | 0.00 | 94 | 1005.1 |
| 20260507070327 | 53 | 332 | 0.0 | 0.9 | 0.00 | 0.09 | 0.00 | 94 | 1004.8 |
| 20260507065427 | 53 | 332 | 0.0 | 2.6 | 0.00 | 0.09 | 0.00 | 94 | 1005.0 |
| 20260507064527 | 53 | 332 | 0.0 | 0.9 | 0.00 | 0.09 | 0.00 | 95 | 1005.0 |
| 20260507063627 | 54 | 332 | 0.9 | 2.6 | 0.00 | 0.09 | 0.00 | 95 | 1005.0 |
| 20260507062727 | 55 | 317 | 0.0 | 2.6 | 0.00 | 0.09 | 0.00 | 97 | 1005.2 |
| 20260507061827 | 55 | 0 | 0.0 | 0.0 | 0.00 | 0.09 | 0.00 | 98 | 1005.1 |
| 20260507060927 | 56 | 0 | 0.0 | 0.0 | 0.00 | 0.09 | 0.00 | 98 | 1005.0 |
| 20260507060027 | 56 | 0 | 0.0 | 0.0 | 0.00 | 0.09 | 0.00 | 98 | 1005.1 |
| 20260507054227 | 56 | 280 | 0.0 | 1.7 | 0.00 | 0.09 | 0.00 | 98 | 1005.3 |
| 20260507052427 | 56 | 279 | 0.0 | 1.7 | 0.00 | 0.09 | 0.00 | 98 | 1005.7 |
| 20260507051527 | 57 | 0 | 0.0 | 0.0 | 0.00 | 0.09 | 0.00 | 98 | 1005.4 |
| 20260507050627 | 57 | 0 | 0.0 | 0.0 | 0.00 | 0.09 | 0.00 | 98 | 1005.2 |
| 20260507045727 | 58 | 279 | 0.0 | 1.7 | 0.00 | 0.09 | 0.00 | 99 | 1005.2 |
| 20260507044827 | 58 | 279 | 0.0 | 2.6 | 0.01 | 0.09 | 0.00 | 98 | 1005.4 |
| 20260507043927 | 58 | 263 | 0.0 | 1.7 | 0.01 | 0.09 | 0.00 | 99 | 1005.2 |
| 20260507042127 | 58 | 0 | 0.0 | 0.0 | 0.01 | 0.09 | 0.00 | 99 | 1005.1 |
| 20260507041227 | 59 | 262 | 0.0 | 0.9 | 0.01 | 0.09 | 0.00 | 99 | 1005.1 |
| 20260507040327 | 59 | 0 | 0.0 | 0.0 | 0.01 | 0.09 | 0.00 | 99 | 1005.3 |
| 20260507035433 | 59 | 262 | 0.0 | 0.9 | 0.00 | 0.08 | 0.08 | 99 | 1005.2 |
| 20260507034527 | 59 | 255 | 0.9 | 4.3 | 0.00 | 0.08 | 0.08 | 99 | 1005.3 |
| 20260507033627 | 59 | 281 | 1.7 | 4.3 | 0.00 | 0.08 | 0.08 | 99 | 1005.4 |
| 20260507032727 | 59 | 286 | 1.7 | 4.3 | 0.00 | 0.08 | 0.08 | 99 | 1005.2 |
| 20260507031827 | 59 | 275 | 0.9 | 2.6 | 0.00 | 0.08 | 0.08 | 99 | 1005.0 |
| 20260507030927 | 59 | 271 | 0.9 | 3.5 | 0.00 | 0.08 | 0.08 | 99 | 1004.9 |
| 20260507030027 | 58 | 271 | 0.9 | 3.5 | 0.00 | 0.08 | 0.08 | 99 | 1005.0 |
| 20260507025127 | 58 | 278 | 0.9 | 2.6 | 0.00 | 0.08 | 0.08 | 99 | 1004.9 |
| 20260507024227 | 58 | 254 | 0.9 | 3.5 | 0.00 | 0.08 | 0.08 | 99 | 1005.0 |
| 20260507023327 | 58 | 236 | 0.9 | 2.6 | 0.00 | 0.08 | 0.08 | 99 | 1004.7 |
| 20260507020627 | 58 | 232 | 0.9 | 2.6 | 0.00 | 0.08 | 0.08 | 99 | 1004.9 |
| 20260507015728 | 58 | 242 | 0.9 | 2.6 | 0.00 | 0.08 | 0.08 | 99 | 1005.0 |
| 20260507014828 | 58 | 240 | 0.9 | 3.5 | 0.00 | 0.08 | 0.08 | 99 | 1004.8 |
| 20260507013927 | 58 | 231 | 0.9 | 2.6 | 0.00 | 0.08 | 0.08 | 99 | 1004.9 |
| 20260507013027 | 58 | 241 | 0.9 | 3.5 | 0.00 | 0.08 | 0.08 | 99 | 1004.9 |
| 20260507012127 | 58 | 263 | 0.9 | 3.5 | 0.00 | 0.08 | 0.08 | 99 | 1005.1 |
| 20260507010327 | 58 | 243 | 0.9 | 3.5 | 0.00 | 0.08 | 0.08 | 99 | 1005.2 |
| 20260507005427 | 58 | 240 | 0.9 | 3.5 | 0.00 | 0.08 | 0.08 | 99 | 1005.3 |
| 20260507004527 | 58 | 239 | 0.9 | 3.5 | 0.00 | 0.08 | 0.08 | 99 | 1005.3 |
| 20260507003627 | 58 | 242 | 0.9 | 4.3 | 0.00 | 0.08 | 0.08 | 99 | 1005.3 |
| 20260507001827 | 57 | 241 | 0.9 | 3.5 | 0.02 | 0.08 | 0.08 | 99 | 1005.1 |
| 20260507000927 | 58 | 223 | 0.0 | 3.5 | 0.03 | 0.08 | 0.08 | 98 | 1005.1 |
| 20260507000032 | 58 | 254 | 0.9 | 5.2 | 0.04 | 0.08 | 0.08 | 98 | 1005.1 |
| 20260506235127 | 58 | 268 | 0.9 | 2.6 | 0.04 | 0.08 | 0.08 | 98 | 1005.0 |
| 20260506234227 | 58 | 241 | 0.9 | 3.5 | 0.04 | 0.08 | 0.08 | 98 | 1005.0 |
| 20260506233327 | 58 | 229 | 0.9 | 3.5 | 0.03 | 0.07 | 0.07 | 98 | 1004.9 |
| 20260506232427 | 58 | 233 | 0.9 | 5.2 | 0.02 | 0.06 | 0.06 | 98 | 1004.9 |
| 20260506231527 | 58 | 233 | 0.9 | 5.2 | 0.02 | 0.06 | 0.06 | 98 | 1005.0 |
| 20260506230627 | 58 | 235 | 0.9 | 4.3 | 0.00 | 0.04 | 0.04 | 98 | 1005.0 |
| 20260506225727 | 58 | 239 | 0.9 | 2.6 | 0.00 | 0.04 | 0.04 | 98 | 1004.9 |
| 20260506224827 | 58 | 232 | 0.9 | 2.6 | 0.00 | 0.04 | 0.04 | 98 | 1005.0 |
| 20260506223927 | 58 | 232 | 0.9 | 3.5 | 0.00 | 0.04 | 0.04 | 98 | 1004.9 |
| 20260506223027 | 58 | 238 | 0.9 | 4.3 | 0.00 | 0.04 | 0.04 | 98 | 1004.8 |
| 20260506222127 | 59 | 205 | 0.9 | 5.2 | 0.00 | 0.04 | 0.04 | 98 | 1004.9 |
| 20260506220328 | 59 | 249 | 1.7 | 6.1 | 0.01 | 0.04 | 0.04 | 98 | 1005.3 |
| 20260506215428 | 59 | 244 | 0.9 | 4.3 | 0.01 | 0.04 | 0.04 | 98 | 1005.3 |
| 20260506214527 | 59 | 234 | 0.9 | 4.3 | 0.02 | 0.04 | 0.04 | 98 | 1005.3 |
| 20260506213627 | 59 | 277 | 0.9 | 3.5 | 0.02 | 0.04 | 0.04 | 98 | 1005.3 |
| 20260506212727 | 59 | 283 | 0.9 | 2.6 | 0.03 | 0.04 | 0.04 | 97 | 1005.5 |
| 20260506211827 | 59 | 232 | 0.9 | 3.5 | 0.03 | 0.04 | 0.04 | 97 | 1005.5 |
| 20260506210927 | 59 | 235 | 0.9 | 3.5 | 0.02 | 0.03 | 0.03 | 97 | 1005.7 |
| 20260506210027 | 60 | 240 | 0.9 | 3.5 | 0.02 | 0.03 | 0.03 | 97 | 1005.6 |
| 20260506205127 | 60 | 231 | 0.9 | 3.5 | 0.03 | 0.03 | 0.03 | 96 | 1005.7 |
| 20260506204227 | 60 | 234 | 0.9 | 3.5 | 0.02 | 0.02 | 0.02 | 96 | 1005.8 |
| 20260506203327 | 60 | 233 | 1.7 | 4.3 | 0.01 | 0.01 | 0.01 | 95 | 1005.9 |
| 20260506202427 | 60 | 229 | 0.9 | 6.1 | 0.01 | 0.01 | 0.01 | 95 | 1005.9 |
| 20260506200627 | 61 | 242 | 1.7 | 4.3 | 0.01 | 0.01 | 0.01 | 94 | 1006.0 |
| 20260506195728 | 62 | 244 | 1.7 | 4.3 | 0.01 | 0.01 | 0.01 | 94 | 1006.1 |
| 20260506194827 | 62 | 243 | 1.7 | 5.2 | 0.00 | 0.00 | 0.00 | 92 | 1006.0 |
| 20260506193027 | 63 | 255 | 0.9 | 2.6 | 0.00 | 0.00 | 0.00 | 91 | 1006.1 |
| 20260506192126 | 63 | 241 | 1.7 | 5.2 | 0.00 | 0.00 | 0.00 | 88 | 1006.1 |
| 20260506191226 | 64 | 252 | 1.7 | 5.2 | 0.00 | 0.00 | 0.00 | 87 | 1006.2 |
| 20260506190326 | 65 | 247 | 1.7 | 4.3 | 0.00 | 0.00 | 0.00 | 84 | 1006.2 |
| 20260506185426 | 66 | 247 | 2.6 | 5.2 | 0.00 | 0.00 | 0.00 | 80 | 1006.2 |
| 20260506184527 | 67 | 259 | 2.6 | 4.3 | 0.00 | 0.00 | 0.00 | 77 | 1006.2 |
| 20260506183628 | 68 | 258 | 2.6 | 7.0 | 0.00 | 0.00 | 0.00 | 75 | 1006.2 |
| 20260506182727 | 69 | 252 | 2.6 | 6.1 | 0.00 | 0.00 | 0.00 | 74 | 1006.4 |
| 20260506181827 | 70 | 250 | 2.6 | 6.1 | 0.00 | 0.00 | 0.00 | 73 | 1006.3 |
| 20260506180927 | 70 | 246 | 2.6 | 7.0 | 0.00 | 0.00 | 0.00 | 71 | 1006.4 |
| 20260506180026 | 70 | 239 | 2.6 | 7.0 | 0.00 | 0.00 | 0.00 | 71 | 1006.3 |
| 20260506175127 | 71 | 235 | 2.6 | 7.0 | 0.00 | 0.00 | 0.00 | 70 | 1006.5 |
| 20260506174227 | 71 | 242 | 1.7 | 5.2 | 0.00 | 0.00 | 0.00 | 69 | 1006.6 |
| 20260506173328 | 71 | 237 | 2.6 | 7.8 | 0.00 | 0.00 | 0.00 | 68 | 1006.8 |
| 20260506172426 | 72 | 252 | 2.6 | 8.7 | 0.00 | 0.00 | 0.00 | 68 | 1006.8 |
| 20260506171526 | 72 | 248 | 1.7 | 8.7 | 0.00 | 0.00 | 0.00 | 68 | 1006.8 |
| 20260506170626 | 72 | 254 | 2.6 | 8.7 | 0.00 | 0.00 | 0.00 | 69 | 1006.7 |
| 20260506165726 | 72 | 246 | 3.5 | 9.6 | 0.00 | 0.00 | 0.00 | 67 | 1006.6 |
| 20260506164827 | 72 | 248 | 2.6 | 8.7 | 0.00 | 0.00 | 0.00 | 68 | 1006.8 |
| 20260506163926 | 72 | 244 | 1.7 | 5.2 | 0.00 | 0.00 | 0.00 | 69 | 1007.0 |
| 20260506163026 | 72 | 248 | 1.7 | 7.0 | 0.00 | 0.00 | 0.00 | 68 | 1007.1 |
| 20260506162126 | 72 | 237 | 2.6 | 7.0 | 0.00 | 0.00 | 0.00 | 68 | 1007.2 |
| 20260506161226 | 72 | 236 | 1.7 | 6.1 | 0.00 | 0.00 | 0.00 | 68 | 1007.3 |
| 20260506160326 | 72 | 223 | 2.6 | 7.0 | 0.00 | 0.00 | 0.00 | 67 | 1007.5 |
| 20260506155426 | 73 | 224 | 1.7 | 7.8 | 0.00 | 0.00 | 0.00 | 67 | 1007.6 |
| 20260506154526 | 72 | 228 | 2.6 | 9.6 | 0.00 | 0.00 | 0.00 | 69 | 1007.7 |
| 20260506153626 | 73 | 236 | 1.7 | 6.1 | 0.00 | 0.00 | 0.00 | 68 | 1007.9 |
| 20260506152726 | 73 | 251 | 1.7 | 6.1 | 0.00 | 0.00 | 0.00 | 68 | 1007.8 |
| 20260506151826 | 72 | 231 | 2.6 | 7.0 | 0.00 | 0.00 | 0.00 | 69 | 1008.0 |
| 20260506150926 | 72 | 233 | 1.7 | 6.1 | 0.00 | 0.00 | 0.00 | 71 | 1008.1 |
| 20260506150027 | 71 | 226 | 1.7 | 5.2 | 0.00 | 0.00 | 0.00 | 70 | 1008.2 |
| 20260506144226 | 71 | 253 | 2.6 | 7.8 | 0.00 | 0.00 | 0.00 | 70 | 1008.2 |
| 20260506143326 | 71 | 243 | 1.7 | 5.2 | 0.00 | 0.00 | 0.00 | 70 | 1008.1 |
| 20260506142427 | 71 | 236 | 2.6 | 7.0 | 0.00 | 0.00 | 0.00 | 71 | 1008.0 |
| 20260506141526 | 71 | 233 | 1.7 | 4.3 | 0.00 | 0.00 | 0.00 | 71 | 1008.0 |
| 20260506140626 | 71 | 242 | 1.7 | 6.1 | 0.00 | 0.00 | 0.00 | 72 | 1008.1 |
| 20260506135727 | 70 | 238 | 2.6 | 5.2 | 0.00 | 0.00 | 0.00 | 72 | 1008.1 |
| 20260506134826 | 70 | 235 | 1.7 | 7.8 | 0.00 | 0.00 | 0.00 | 72 | 1008.2 |
| 20260506133926 | 70 | 252 | 1.7 | 7.0 | 0.00 | 0.00 | 0.00 | 75 | 1008.0 |
| 20260506133026 | 68 | 249 | 1.7 | 5.2 | 0.00 | 0.00 | 0.00 | 77 | 1008.4 |
| 20260506132126 | 67 | 248 | 1.7 | 5.2 | 0.00 | 0.00 | 0.00 | 80 | 1008.7 |
| 20260506131226 | 66 | 220 | 1.7 | 4.3 | 0.00 | 0.00 | 0.00 | 81 | 1008.8 |